Time;durP1;ratioP1;P1;durP2;ratioP2;P2;SDS_P1;SDS_P2;PMS_P1;PMS_P2;Temp;Humidity;BMP_temperature;BMP_pressure;BME280_temperature;BME280_humidity;BME280_pressure;Samples;Min_cycle;Max_cycle;Signal;HPM_P1;HPM_P2
2021/05/10 00:02:18;;;;;;;14.60;10.98;;;;;;;9.93;88.88;100845.38;6336276;28;20494;-72
2021/05/10 00:05:22;;;;;;;14.75;10.57;;;;;;;9.86;89.66;100844.53;6337146;28;20190;-72
2021/05/10 00:08:26;;;;;;;16.30;10.35;;;;;;;10.01;88.39;100842.41;6336232;28;20409;-71
2021/05/10 00:11:31;;;;;;;20.77;11.23;;;;;;;10.02;88.35;100848.69;6337190;28;20278;-72
2021/05/10 00:14:39;;;;;;;14.30;10.82;;;;;;;9.98;88.17;100837.41;6337124;28;20228;-72
2021/05/10 00:17:44;;;;;;;17.58;11.35;;;;;;;9.88;88.82;100837.00;6337259;28;20217;-71
2021/05/10 00:20:48;;;;;;;16.58;10.77;;;;;;;9.94;88.38;100830.69;6337341;28;20246;-72
2021/05/10 00:23:52;;;;;;;18.95;10.50;;;;;;;9.94;89.17;100830.69;6335794;28;20244;-71
2021/05/10 00:26:55;;;;;;;18.52;10.75;;;;;;;10.01;88.54;100853.31;6338494;28;20202;-71
2021/05/10 00:29:59;;;;;;;20.40;10.32;;;;;;;10.01;88.21;100831.50;6342253;28;20183;-72
2021/05/10 00:33:04;;;;;;;13.73;10.32;;;;;;;9.93;89.17;100839.94;6342375;28;20183;-72
2021/05/10 00:36:08;;;;;;;15.68;10.13;;;;;;;9.97;89.17;100857.53;6342101;28;20214;-72
2021/05/10 00:39:11;;;;;;;17.50;10.93;;;;;;;9.75;90.33;100872.44;6340740;28;20489;-72
2021/05/10 00:42:15;;;;;;;13.30;9.77;;;;;;;9.76;90.29;100874.09;6340739;28;20183;-72
2021/05/10 00:45:19;;;;;;;13.02;9.82;;;;;;;9.86;89.79;100870.97;6341668;28;20189;-71
2021/05/10 00:48:23;;;;;;;13.32;9.93;;;;;;;9.81;89.66;100866.13;6373511;27;20409;-72
2021/05/10 00:51:26;;;;;;;15.73;10.82;;;;;;;9.78;90.24;100877.47;6341106;28;20183;-72
2021/05/10 00:54:30;;;;;;;18.30;10.60;;;;;;;9.88;90.12;100869.72;6340401;28;20530;-71
2021/05/10 00:57:38;;;;;;;14.15;9.95;;;;;;;9.92;89.24;100859.19;6341525;28;20207;-70
2021/05/10 01:00:43;;;;;;;14.15;10.20;;;;;;;9.89;90.01;100857.75;6341535;28;20187;-71
2021/05/10 01:03:52;;;;;;;15.85;10.20;;;;;;;9.94;89.65;100879.75;6340089;28;20187;-72
2021/05/10 01:06:55;;;;;;;16.00;10.07;;;;;;;10.12;88.73;100878.25;6340544;28;20258;-72
2021/05/10 01:09:59;;;;;;;17.75;9.77;;;;;;;10.14;88.47;100878.91;6340433;28;20236;-70
2021/05/10 01:13:03;;;;;;;13.85;9.50;;;;;;;10.23;88.06;100888.53;6340634;28;20183;-71
2021/05/10 01:16:07;;;;;;;14.00;9.80;;;;;;;10.05;88.80;100881.84;6341289;28;20183;-72
2021/05/10 01:19:11;;;;;;;12.48;9.65;;;;;;;9.97;89.73;100892.94;6339643;28;20481;-71
2021/05/10 01:22:17;;;;;;;16.05;10.10;;;;;;;9.86;90.48;100882.69;6339683;28;20246;-71
2021/05/10 01:25:23;;;;;;;13.45;9.55;;;;;;;9.92;90.53;100897.34;6340940;28;20214;-72
2021/05/10 01:28:26;;;;;;;11.23;8.65;;;;;;;9.93;91.01;100889.00;6339881;28;20191;-72
2021/05/10 01:31:30;;;;;;;10.32;8.95;;;;;;;9.96;91.17;100904.06;6340926;28;20183;-71
2021/05/10 01:34:34;;;;;;;10.68;8.75;;;;;;;9.94;91.15;100923.34;6339320;28;20409;-71
2021/05/10 01:37:38;;;;;;;12.73;9.55;;;;;;;9.82;92.48;100933.22;6338932;28;20215;-71
2021/05/10 01:40:43;;;;;;;12.65;9.18;;;;;;;9.85;91.96;100930.06;6340245;28;20182;-71
2021/05/10 01:43:46;;;;;;;10.20;9.10;;;;;;;9.92;92.53;100936.34;6340188;28;20189;-71
2021/05/10 01:46:49;;;;;;;15.00;8.80;;;;;;;9.96;93.01;100944.97;6340080;28;20254;-71
2021/05/10 01:49:52;;;;;;;13.63;9.38;;;;;;;9.78;93.32;100951.03;6339765;28;20226;-71
2021/05/10 01:52:56;;;;;;;15.00;9.25;;;;;;;9.89;94.06;100974.91;6339840;28;20225;-72
2021/05/10 01:56:00;;;;;;;19.20;9.10;;;;;;;9.90;94.30;100982.06;6338826;28;20214;-71
2021/05/10 01:59:04;;;;;;;11.85;8.82;;;;;;;10.04;94.29;100994.63;6339103;28;20218;-71
2021/05/10 02:02:08;;;;;;;17.30;8.80;;;;;;;10.04;95.31;101000.09;6339831;28;20183;-71
2021/05/10 02:05:14;;;;;;;12.30;9.05;;;;;;;10.14;94.86;100987.97;6337994;28;20206;-71
2021/05/10 02:08:19;;;;;;;9.90;8.70;;;;;;;10.22;95.19;100979.56;6338644;28;20415;-72
2021/05/10 02:11:23;;;;;;;12.65;8.30;;;;;;;10.24;96.13;100972.03;6339617;28;20189;-72
2021/05/10 02:14:31;;;;;;;9.77;7.90;;;;;;;10.41;95.96;100967.78;6338224;28;20474;-71
2021/05/10 02:17:36;;;;;;;12.55;8.40;;;;;;;10.30;95.10;100962.97;6338359;28;20215;-71
2021/05/10 02:20:40;;;;;;;8.45;7.65;;;;;;;10.48;94.47;100976.78;6338521;28;20183;-70
2021/05/10 02:23:44;;;;;;;9.77;7.68;;;;;;;10.55;94.58;100969.44;6339444;28;20187;-71
2021/05/10 02:26:48;;;;;;;9.48;6.85;;;;;;;10.62;94.85;100992.09;6338843;28;20182;-72
2021/05/10 02:29:51;;;;;;;12.57;7.55;;;;;;;10.65;96.23;100997.13;6338079;28;20473;-72
2021/05/10 02:32:58;;;;;;;9.07;7.82;;;;;;;10.60;96.59;100989.59;6339351;28;20182;-70
2021/05/10 02:36:01;;;;;;;7.97;7.28;;;;;;;10.64;95.83;100985.38;6339031;28;20183;-71
2021/05/10 02:39:05;;;;;;;9.13;7.78;;;;;;;10.67;97.01;100995.03;6337802;28;20468;-72
2021/05/10 02:42:09;;;;;;;11.68;7.65;;;;;;;10.69;97.62;100992.91;6339041;28;20221;-71
2021/05/10 02:45:15;;;;;;;10.25;7.80;;;;;;;10.85;96.92;100986.16;6338914;28;20183;-71
2021/05/10 02:48:18;;;;;;;8.27;7.40;;;;;;;10.96;99.18;100978.13;6337672;28;20202;-71
2021/05/10 02:51:22;;;;;;;8.30;7.53;;;;;;;10.92;100.00;100976.88;6338214;28;20183;-71
2021/05/10 02:54:25;;;;;;;11.70;7.80;;;;;;;10.99;100.00;100987.78;6337609;28;20520;-71
2021/05/10 02:57:29;;;;;;;11.35;8.38;;;;;;;11.03;100.00;100973.47;6338942;28;19916;-71
2021/05/10 03:00:32;;;;;;;11.70;7.97;;;;;;;10.99;100.00;100983.16;6338514;28;20214;-71
2021/05/10 03:03:36;;;;;;;12.50;7.65;;;;;;;11.03;100.00;100995.31;6338611;28;20183;-71
2021/05/10 03:06:40;;;;;;;10.05;7.72;;;;;;;11.02;100.00;101004.56;6337176;28;20372;-71
2021/05/10 03:09:44;;;;;;;17.13;8.32;;;;;;;11.02;100.00;101004.56;6337036;28;20371;-71
2021/05/10 03:12:49;;;;;;;13.52;8.32;;;;;;;11.04;100.00;101007.91;6338376;28;20182;-72
2021/05/10 03:15:52;;;;;;;10.30;7.82;;;;;;;11.15;100.00;101015.44;6337185;28;20198;-71
2021/05/10 03:18:55;;;;;;;8.57;7.55;;;;;;;11.12;100.00;101010.41;6337929;28;20232;-71
2021/05/10 03:21:59;;;;;;;8.60;7.75;;;;;;;11.21;100.00;101024.66;6338299;28;20250;-71
2021/05/10 03:25:02;;;;;;;12.30;8.20;;;;;;;11.25;100.00;101025.88;6336798;28;20521;-71
2021/05/10 03:28:07;;;;;;;15.27;8.93;;;;;;;11.26;100.00;101042.06;6338114;28;20187;-70
2021/05/10 03:31:11;;;;;;;12.00;8.27;;;;;;;11.29;100.00;101038.91;6337702;28;20183;-70
2021/05/10 03:34:15;;;;;;;9.38;7.78;;;;;;;11.24;100.00;101038.72;6337846;28;20190;-71
2021/05/10 03:37:18;;;;;;;9.10;8.20;;;;;;;11.28;100.00;101030.91;6336507;28;20218;-71
2021/05/10 03:40:21;;;;;;;12.77;8.43;;;;;;;11.39;100.00;101021.22;6337343;28;20262;-72
2021/05/10 03:43:25;;;;;;;12.98;9.30;;;;;;;11.38;100.00;101006.69;6337445;28;20183;-70
2021/05/10 03:46:28;;;;;;;13.57;8.35;;;;;;;11.37;100.00;100993.28;6337372;28;20191;-71
2021/05/10 03:49:31;;;;;;;9.98;7.85;;;;;;;11.40;100.00;101001.03;6336279;28;20458;-71
2021/05/10 03:52:35;;;;;;;12.77;8.93;;;;;;;11.46;100.00;101035.66;6337713;28;20215;-71
2021/05/10 03:55:39;;;;;;;9.13;8.23;;;;;;;11.44;100.00;101024.13;6336746;28;20187;-71
2021/05/10 03:58:43;;;;;;;12.77;8.35;;;;;;;11.45;100.00;101050.41;6337216;28;20211;-71
2021/05/10 04:01:46;;;;;;;11.52;8.52;;;;;;;11.56;100.00;101074.28;6336897;28;20228;-72
2021/05/10 04:04:54;;;;;;;10.93;8.38;;;;;;;11.63;100.00;101061.44;6336939;28;20182;-71
2021/05/10 04:08:01;;;;;;;10.93;9.07;;;;;;;11.55;100.00;101056.22;6337185;28;20279;-71
2021/05/10 04:11:08;;;;;;;10.85;8.98;;;;;;;11.62;100.00;101037.91;6336135;28;20199;-71
2021/05/10 04:14:12;;;;;;;10.00;8.88;;;;;;;11.55;100.00;101020.72;6335823;28;20182;-71
2021/05/10 04:17:15;;;;;;;10.43;9.00;;;;;;;11.60;100.00;101015.41;6335848;28;20527;-71
2021/05/10 04:20:19;;;;;;;15.38;9.10;;;;;;;11.36;100.00;101010.72;6336224;28;20202;-71
2021/05/10 04:23:23;;;;;;;10.95;9.30;;;;;;;11.23;100.00;101028.84;6337167;28;20182;-71
2021/05/10 04:26:26;;;;;;;15.40;9.20;;;;;;;11.38;100.00;101019.53;6336172;28;20199;-71
2021/05/10 04:29:30;;;;;;;13.00;8.77;;;;;;;11.50;100.00;101015.06;6335690;28;20469;-71
2021/05/10 04:32:33;;;;;;;13.55;9.25;;;;;;;11.54;100.00;101013.56;6336781;28;20222;-71
2021/05/10 04:35:39;;;;;;;12.77;9.70;;;;;;;11.50;100.00;101006.88;6335776;28;20392;-71
2021/05/10 04:38:43;;;;;;;12.43;8.95;;;;;;;11.45;100.00;100993.03;6336107;28;20214;-71
2021/05/10 04:41:47;;;;;;;12.93;9.77;;;;;;;11.60;100.00;100993.56;6335496;28;20235;-71
2021/05/10 04:45:12;;;;;;;11.05;9.98;;;;;;;11.66;99.90;100976.25;6336052;28;20237;-71
2021/05/10 04:48:27;;;;;;;13.73;10.25;;;;;;;11.69;98.92;100967.66;6336709;28;20241;-71
2021/05/10 04:51:30;;;;;;;11.52;9.88;;;;;;;11.61;99.16;100976.94;6336876;28;20183;-71
2021/05/10 04:54:34;;;;;;;18.63;11.45;;;;;;;11.52;98.71;100961.03;6335497;28;20190;-72
2021/05/10 04:57:37;;;;;;;12.50;11.13;;;;;;;11.47;98.39;100955.38;6336867;28;20339;-71
2021/05/10 05:00:42;;;;;;;13.27;11.50;;;;;;;11.38;98.46;100970.34;6336624;28;20237;-71
2021/05/10 05:03:45;;;;;;;13.32;10.70;;;;;;;11.41;98.16;100964.44;6335439;28;20205;-72
2021/05/10 05:06:49;;;;;;;13.02;10.85;;;;;;;11.40;97.41;100951.88;6335844;28;20224;-72
2021/05/10 05:09:53;;;;;;;16.17;11.35;;;;;;;11.31;98.33;100946.66;6336764;28;20193;-72
2021/05/10 05:12:56;;;;;;;17.45;11.95;;;;;;;11.20;98.51;100933.69;6337275;28;20240;-71
2021/05/10 05:16:00;;;;;;;15.07;11.88;;;;;;;11.27;97.03;100953.59;6341021;28;20229;-71
2021/05/10 05:19:03;;;;;;;16.83;11.93;;;;;;;11.33;96.08;100952.72;6339546;28;20211;-71
2021/05/10 05:22:08;;;;;;;13.57;12.10;;;;;;;11.16;96.89;100946.13;6339755;28;20492;-71
2021/05/10 05:25:12;;;;;;;16.77;11.80;;;;;;;11.05;97.21;100949.53;6339556;28;20477;-71
2021/05/10 05:28:15;;;;;;;14.95;11.90;;;;;;;11.14;96.66;100942.78;6339495;28;20411;-71
2021/05/10 05:31:19;;;;;;;15.90;11.65;;;;;;;11.14;96.65;100936.47;6340413;28;20183;-71
2021/05/10 05:34:25;;;;;;;13.88;11.75;;;;;;;11.12;97.16;100923.00;6340686;28;20183;-71
2021/05/10 05:37:28;;;;;;;16.60;12.40;;;;;;;11.07;97.71;100931.03;6340179;28;20418;-71
2021/05/10 05:40:33;;;;;;;16.52;13.20;;;;;;;10.99;99.04;100934.00;6340673;28;20183;-71
2021/05/10 05:43:36;;;;;;;20.38;13.18;;;;;;;11.00;99.37;100932.97;6339055;28;20489;-71
2021/05/10 05:46:42;;;;;;;18.45;12.40;;;;;;;11.09;98.66;100945.28;6339776;28;20190;-71
2021/05/10 05:49:46;;;;;;;16.52;12.50;;;;;;;11.06;99.41;100953.94;6339237;28;20235;-71
2021/05/10 05:52:49;;;;;;;16.48;12.57;;;;;;;11.02;100.00;100960.88;6339248;28;20228;-71
2021/05/10 05:55:53;;;;;;;17.00;12.57;;;;;;;11.05;100.00;100960.44;6339990;28;20187;-71
2021/05/10 05:58:56;;;;;;;19.20;12.38;;;;;;;11.20;98.96;100977.38;6339790;28;20221;-70
2021/05/10 06:02:00;;;;;;;16.00;11.65;;;;;;;11.24;99.33;100975.91;6338579;28;20263;-71
2021/05/10 06:05:04;;;;;;;17.67;11.70;;;;;;;11.27;99.07;101013.69;6339037;28;20189;-71
2021/05/10 06:08:19;;;;;;;18.70;12.80;;;;;;;11.18;100.00;101023.19;6338526;28;20187;-71
2021/05/10 06:11:22;;;;;;;16.95;12.07;;;;;;;11.21;100.00;101030.97;6338501;28;20244;-71
2021/05/10 06:14:25;;;;;;;17.75;12.38;;;;;;;11.20;100.00;101023.81;6339644;28;20183;-72
2021/05/10 06:17:29;;;;;;;21.50;12.60;;;;;;;11.27;100.00;101019.16;6338558;28;20183;-71
2021/05/10 06:20:34;;;;;;;19.48;12.95;;;;;;;11.32;99.89;101038.44;6338970;28;20210;-71
2021/05/10 06:23:39;;;;;;;18.40;12.75;;;;;;;11.33;100.00;100990.97;6338199;28;20187;-71
2021/05/10 06:26:45;;;;;;;18.85;12.48;;;;;;;11.25;100.00;100993.09;6339053;28;20527;-72
2021/05/10 06:29:48;;;;;;;21.38;12.60;;;;;;;11.27;100.00;100997.28;6337976;28;20238;-73
2021/05/10 06:32:53;;;;;;;18.80;12.35;;;;;;;11.32;100.00;100991.22;6338017;28;20230;-70
2021/05/10 06:35:57;;;;;;;15.30;12.48;;;;;;;11.27;100.00;100991.84;6337795;28;20384;-72
2021/05/10 06:39:00;;;;;;;17.67;13.07;;;;;;;11.28;100.00;100985.34;6338957;28;20206;-71
2021/05/10 06:42:04;;;;;;;19.67;12.88;;;;;;;11.26;100.00;100972.94;6337630;28;20370;-71
2021/05/10 06:45:09;;;;;;;22.23;12.32;;;;;;;11.36;100.00;100978.78;6338330;28;20213;-71
2021/05/10 06:48:26;;;;;;;17.83;13.13;;;;;;;11.49;100.00;100967.78;6338405;28;20202;-71
2021/05/10 06:51:30;;;;;;;21.30;12.73;;;;;;;11.44;100.00;100980.41;6337759;28;20236;-72
2021/05/10 06:54:33;;;;;;;16.98;11.77;;;;;;;11.50;100.00;100979.53;6338085;28;20244;-72
2021/05/10 06:57:36;;;;;;;16.70;12.13;;;;;;;11.60;100.00;100974.44;6337191;28;20190;-71
2021/05/10 07:00:40;;;;;;;16.20;12.63;;;;;;;11.72;100.00;100972.69;6337941;28;20278;-71
2021/05/10 07:03:44;;;;;;;13.77;11.93;;;;;;;11.71;100.00;100993.72;6337298;28;20412;-71
2021/05/10 07:06:47;;;;;;;14.60;11.80;;;;;;;11.67;100.00;101003.41;6336966;28;20183;-71
2021/05/10 07:09:51;;;;;;;13.73;12.07;;;;;;;11.72;100.00;101011.81;6336905;28;20473;-70
2021/05/10 07:12:54;;;;;;;16.35;11.70;;;;;;;11.71;100.00;101014.75;6337999;28;20189;-71
2021/05/10 07:15:57;;;;;;;13.82;9.88;;;;;;;11.42;98.58;101010.69;6337824;28;20320;-71
2021/05/10 07:19:02;;;;;;;15.55;10.00;;;;;;;11.61;97.18;100997.94;6337356;28;20249;-72
2021/05/10 07:22:07;;;;;;;12.18;10.07;;;;;;;11.30;95.38;100961.38;6338309;28;20281;-72
2021/05/10 07:25:10;;;;;;;13.45;9.40;;;;;;;11.57;94.88;100975.72;6337162;28;20224;-72
2021/05/10 07:28:15;;;;;;;11.57;9.32;;;;;;;11.56;94.34;100978.66;6337354;28;20187;-72
2021/05/10 07:31:19;;;;;;;13.15;9.70;;;;;;;11.61;94.93;100978.81;6336928;28;20256;-71
2021/05/10 07:34:23;;;;;;;11.95;9.55;;;;;;;11.78;94.65;100988.22;6336728;28;20236;-71
2021/05/10 07:37:29;;;;;;;14.73;9.27;;;;;;;11.69;95.18;101005.94;6337653;28;20193;-71
2021/05/10 07:40:32;;;;;;;12.40;9.48;;;;;;;11.62;95.34;101043.38;6337491;28;20245;-71
2021/05/10 07:43:35;;;;;;;12.10;9.48;;;;;;;11.55;95.39;101076.19;6336601;28;20497;-71
2021/05/10 07:46:39;;;;;;;17.15;9.75;;;;;;;11.42;97.10;101109.03;6336480;28;20183;-71
2021/05/10 07:49:43;;;;;;;16.83;10.57;;;;;;;11.34;98.55;101150.25;6337087;28;20409;-71
2021/05/10 07:52:46;;;;;;;16.98;10.82;;;;;;;11.31;99.02;101134.28;6337773;28;20187;-72
2021/05/10 07:55:50;;;;;;;12.85;10.02;;;;;;;11.50;98.78;101132.56;6336697;28;20189;-71
2021/05/10 07:58:55;;;;;;;16.70;9.88;;;;;;;11.69;96.31;101110.63;6337921;28;20245;-71
2021/05/10 08:01:59;;;;;;;18.67;10.23;;;;;;;11.74;95.62;101109.97;6336149;28;20272;-71
2021/05/10 08:05:04;;;;;;;15.80;9.75;;;;;;;11.81;95.25;101124.47;6336034;28;20319;-71
2021/05/10 08:08:12;;;;;;;12.27;9.73;;;;;;;11.83;95.18;101086.81;6336052;28;20183;-72
2021/05/10 08:11:15;;;;;;;12.98;9.45;;;;;;;11.94;94.77;101069.69;6337126;28;20190;-71
2021/05/10 08:14:18;;;;;;;15.50;10.07;;;;;;;12.01;93.98;101051.34;6337042;28;20252;-72
2021/05/10 08:17:22;;;;;;;11.80;9.38;;;;;;;12.13;94.12;101057.78;6336050;28;20187;-71
2021/05/10 08:20:26;;;;;;;13.48;9.57;;;;;;;11.98;94.17;101038.13;6335153;28;20277;-71
2021/05/10 08:23:30;;;;;;;11.70;9.77;;;;;;;11.93;95.78;101062.56;6336966;28;20228;-70
2021/05/10 08:26:33;;;;;;;11.00;9.90;;;;;;;12.12;95.43;101053.34;6337196;28;20220;-70
2021/05/10 08:29:36;;;;;;;14.70;10.18;;;;;;;12.19;94.86;101045.97;6336743;28;20218;-71
2021/05/10 08:32:40;;;;;;;11.52;10.10;;;;;;;12.42;94.51;101034.41;6336267;28;20228;-71
2021/05/10 08:35:44;;;;;;;11.77;10.43;;;;;;;12.60;94.20;101036.34;6337136;28;20194;-71
2021/05/10 08:38:51;;;;;;;15.25;9.75;;;;;;;12.61;93.82;101022.41;6335766;28;20206;-71
2021/05/10 08:41:54;;;;;;;16.42;10.10;;;;;;;12.77;93.11;101029.19;6336234;28;20190;-70
2021/05/10 08:44:59;;;;;;;13.00;9.45;;;;;;;12.82;92.57;101018.41;6336756;28;20191;-71
2021/05/10 08:48:05;;;;;;;12.15;9.35;;;;;;;12.87;92.19;101004.88;6337658;28;20198;-71
2021/05/10 08:51:13;;;;;;;18.00;9.45;;;;;;;12.77;93.12;100999.09;6340942;28;20246;-71
2021/05/10 08:54:24;;;;;;;14.18;9.10;;;;;;;12.88;93.50;100995.59;6373474;27;20183;-71
2021/05/10 08:57:27;;;;;;;12.10;8.80;;;;;;;12.87;92.27;100994.75;6340969;28;20111;-71
2021/05/10 09:00:30;;;;;;;;;;;;;;;13.04;92.54;100984.03;6342073;28;20044;-71
2021/05/10 09:03:38;;;;;;;13.30;9.60;;;;;;;13.00;92.43;100983.66;6342105;28;19916;-70
2021/05/10 09:06:42;;;;;;;10.93;9.57;;;;;;;12.99;92.43;100970.19;6340561;28;20184;-70
2021/05/10 09:09:53;;;;;;;11.90;8.15;;;;;;;13.10;92.25;100978.50;6341286;28;20224;-71
2021/05/10 09:12:56;;;;;;;9.80;8.75;;;;;;;13.20;91.66;100974.41;6341105;28;20184;-71
2021/05/10 09:16:02;;;;;;;12.77;9.23;;;;;;;13.23;90.85;100971.16;6341067;28;20277;-71
2021/05/10 09:19:05;;;;;;;10.48;7.95;;;;;;;13.27;89.81;100972.41;6340306;28;20207;-71
2021/05/10 09:22:10;;;;;;;10.23;8.30;;;;;;;13.28;88.34;100958.44;6340959;28;20183;-71
2021/05/10 09:25:14;;;;;;;10.25;7.57;;;;;;;13.35;89.00;100959.22;6339969;28;20187;-71
2021/05/10 09:28:23;;;;;;;10.82;8.00;;;;;;;13.41;88.03;100963.75;6339588;28;20182;-71
2021/05/10 09:31:28;;;;;;;8.40;7.60;;;;;;;13.39;87.72;100949.44;6340944;28;20222;-71
2021/05/10 09:34:31;;;;;;;10.68;7.38;;;;;;;13.38;88.50;100947.78;6340042;28;20215;-72
2021/05/10 09:37:35;;;;;;;9.70;7.50;;;;;;;13.51;88.02;100958.53;6340518;28;20191;-71
2021/05/10 09:40:42;;;;;;;10.00;7.80;;;;;;;13.24;87.39;100918.91;6340198;28;20214;-70
2021/05/10 09:43:45;;;;;;;8.30;7.43;;;;;;;13.44;88.04;100946.84;6340671;28;20186;-72
2021/05/10 09:46:48;;;;;;;8.68;7.28;;;;;;;13.51;86.74;100942.09;6340312;28;20182;-71
2021/05/10 09:49:51;;;;;;;10.65;7.43;;;;;;;13.65;84.68;100960.03;6339898;28;20238;-70
2021/05/10 09:52:56;;;;;;;6.80;6.10;;;;;;;13.75;81.60;100938.34;6340310;28;20215;-71
2021/05/10 09:56:28;;;;;;;7.95;6.00;;;;;;;13.77;80.98;100925.25;6340127;28;20228;-72
2021/05/10 09:59:31;;;;;;;6.55;5.80;;;;;;;13.87;80.85;100924.66;6339649;28;20269;-71
2021/05/10 10:02:34;;;;;;;7.43;6.13;;;;;;;13.87;80.86;100918.34;6338647;28;20220;-72
2021/05/10 10:05:38;;;;;;;;;;;;;;;14.03;80.71;100923.13;6339010;28;20179;-72
2021/05/10 10:08:44;;;;;;;6.82;6.30;;;;;;;13.93;77.90;100907.25;6338748;28;20512;-71
2021/05/10 10:11:47;;;;;;;7.38;5.90;;;;;;;14.01;79.03;100919.78;6338493;28;20183;-71
2021/05/10 10:14:51;;;;;;;7.45;5.80;;;;;;;14.14;77.29;100925.03;6338412;28;20348;-71
2021/05/10 10:17:55;;;;;;;11.65;5.65;;;;;;;14.26;77.45;100925.88;6339513;28;20255;-72
2021/05/10 10:21:00;;;;;;;6.17;5.67;;;;;;;14.27;77.03;100903.69;6339717;28;20278;-70
2021/05/10 10:24:06;;;;;;;8.60;6.40;;;;;;;14.46;77.49;100917.31;6339366;28;20284;-71
2021/05/10 10:27:29;;;;;;;6.88;5.68;;;;;;;14.57;74.77;100905.47;6339274;28;20186;-72
2021/05/10 10:30:38;;;;;;;6.22;5.68;;;;;;;14.67;74.60;100923.00;6337952;28;20489;-71
2021/05/10 10:33:47;;;;;;;6.90;5.70;;;;;;;14.73;71.99;100897.34;6338056;28;20118;-71
2021/05/10 10:36:52;;;;;;;9.45;5.82;;;;;;;14.79;72.51;100907.31;6337496;28;20215;-71
2021/05/10 10:39:57;;;;;;;6.88;5.70;;;;;;;14.81;71.41;100894.22;6338897;28;20248;-72
2021/05/10 10:43:23;;;;;;;5.38;4.88;;;;;;;14.90;71.20;100898.22;6338986;28;20234;-72
2021/05/10 10:46:30;;;;;;;9.82;5.30;;;;;;;14.91;70.31;100877.94;6337745;28;20214;-71
2021/05/10 10:49:35;;;;;;;5.43;4.70;;;;;;;15.21;71.40;100880.41;6338409;28;20230;-71
2021/05/10 10:52:50;;;;;;;5.38;4.75;;;;;;;15.39;69.76;100873.88;6338744;28;20183;-71
2021/05/10 10:55:56;;;;;;;9.05;5.05;;;;;;;15.54;70.54;100863.16;6338364;28;20183;-71
2021/05/10 10:59:13;;;;;;;;;;;;;;;15.61;68.73;100877.63;6339097;28;20222;-70
2021/05/10 11:02:19;;;;;;;7.22;4.53;;;;;;;15.68;68.22;100849.94;6337431;28;20060;-71
2021/05/10 11:05:23;;;;;;;6.22;4.88;;;;;;;15.70;66.44;100859.59;6337119;28;20501;-71
2021/05/10 11:08:45;;;;;;;5.22;4.32;;;;;;;15.84;67.29;100855.44;6338075;28;20246;-73
2021/05/10 11:11:49;;;;;;;5.03;4.43;;;;;;;15.95;65.62;100856.41;6337397;28;20187;-71
2021/05/10 11:14:53;;;;;;;5.13;4.53;;;;;;;16.13;65.41;100854.22;6337513;28;20215;-71
2021/05/10 11:17:59;;;;;;;8.32;4.72;;;;;;;16.26;65.13;100842.84;6336824;28;20214;-71
2021/05/10 11:21:05;;;;;;;12.95;4.60;;;;;;;16.26;64.11;100842.84;6336640;28;20075;-70
2021/05/10 11:24:23;;;;;;;10.32;4.32;;;;;;;16.34;63.75;100849.84;6337676;28;20183;-71
2021/05/10 11:27:30;;;;;;;10.13;4.85;;;;;;;16.49;63.14;100850.03;6337349;28;20222;-71
2021/05/10 11:30:57;;;;;;;6.05;4.25;;;;;;;16.54;63.61;100854.81;6337881;28;20218;-72
2021/05/10 11:34:12;;;;;;;6.93;4.32;;;;;;;16.62;62.54;100854.38;6337921;28;20215;-71
2021/05/10 11:37:24;;;;;;;10.73;4.28;;;;;;;16.66;60.83;100869.31;6337877;28;20183;-71
2021/05/10 11:40:27;;;;;;;8.70;4.72;;;;;;;16.67;61.28;100865.44;6335496;28;20222;-71
2021/05/10 11:43:38;;;;;;;5.72;4.22;;;;;;;16.67;59.60;100848.91;6336445;28;20230;-71
2021/05/10 11:46:43;;;;;;;4.10;3.70;;;;;;;16.74;60.14;100861.41;6336418;28;20287;-71
2021/05/10 11:49:50;;;;;;;7.20;4.25;;;;;;;16.79;61.49;100855.16;6336851;28;20238;-71
2021/05/10 11:52:53;;;;;;;5.80;4.05;;;;;;;16.90;61.25;100843.13;6335456;28;20206;-70
2021/05/10 11:56:00;;;;;;;9.82;4.47;;;;;;;17.05;62.12;100846.06;6337607;28;20214;-72
2021/05/10 12:02:50;;;;;;;9.02;4.30;;;;;;;17.13;61.25;100844.78;6312851;28;20244;-71
2021/05/10 12:05:53;;;;;;;12.57;4.15;;;;;;;17.17;59.25;100854.19;6336746;28;20221;-71
2021/05/10 12:08:57;;;;;;;4.82;4.35;;;;;;;17.20;60.02;100854.50;6337279;28;20228;-71
2021/05/10 12:12:01;;;;;;;6.60;4.28;;;;;;;17.17;59.78;100855.03;6336046;28;20440;-70
2021/05/10 12:15:11;;;;;;;5.50;4.00;;;;;;;16.99;58.37;100830.56;6336341;28;20229;-70
2021/05/10 12:18:14;;;;;;;12.45;4.47;;;;;;;17.03;58.85;100848.25;6337105;28;20190;-71
2021/05/10 12:21:18;;;;;;;13.48;4.68;;;;;;;17.04;60.31;100857.34;6336912;28;20211;-71
2021/05/10 12:24:21;;;;;;;4.95;4.30;;;;;;;16.84;63.38;100850.53;6341527;28;20182;-71
2021/05/10 12:27:27;;;;;;;7.43;4.18;;;;;;;16.64;61.78;100860.47;6342246;28;20255;-71
2021/05/10 12:30:33;;;;;;;4.82;4.43;;;;;;;16.82;61.99;100851.84;6341303;28;20187;-71
2021/05/10 12:33:36;;;;;;;10.65;4.35;;;;;;;16.88;63.17;100853.59;6340275;28;20407;-71
2021/05/10 12:36:39;;;;;;;4.40;4.00;;;;;;;16.89;61.37;100852.50;6340830;28;20243;-71
2021/05/10 12:39:43;;;;;;;5.20;3.97;;;;;;;17.04;61.97;100855.44;6341551;28;20183;-71
2021/05/10 12:43:02;;;;;;;4.18;3.88;;;;;;;17.14;61.20;100866.56;6340515;28;20549;-70
2021/05/10 12:46:07;;;;;;;4.20;3.53;;;;;;;17.16;60.92;100853.34;6341507;28;20187;-71
2021/05/10 12:49:22;;;;;;;6.75;3.83;;;;;;;17.28;59.34;100872.50;6340597;28;20483;-71
2021/05/10 12:52:25;;;;;;;4.40;3.55;;;;;;;17.45;58.82;100863.03;6341830;28;20200;-71
2021/05/10 12:55:29;;;;;;;5.57;3.80;;;;;;;17.49;57.95;100877.94;6341336;28;20182;-71
2021/05/10 12:58:37;;;;;;;4.40;3.78;;;;;;;17.39;58.80;100872.34;6341130;28;20194;-71
2021/05/10 13:01:41;;;;;;;5.97;4.65;;;;;;;17.43;59.42;100875.41;6341226;28;20211;-71
2021/05/10 13:04:52;;;;;;;4.53;3.35;;;;;;;17.44;57.62;100879.81;6341025;28;20183;-70
2021/05/10 13:07:55;;;;;;;4.07;3.78;;;;;;;17.44;57.29;100883.41;6339772;28;20333;-71
2021/05/10 13:10:59;;;;;;;6.07;3.70;;;;;;;17.30;56.97;100875.84;6339619;28;20187;-71
2021/05/10 13:14:04;;;;;;;4.28;3.63;;;;;;;17.21;57.19;100872.69;6341240;28;20183;-72
2021/05/10 13:17:14;;;;;;;4.40;4.00;;;;;;;17.58;57.06;100888.53;6341336;28;20192;-72
2021/05/10 13:20:23;;;;;;;5.45;3.63;;;;;;;17.38;58.17;100898.25;6340661;28;20211;-71
2021/05/10 13:27:14;;;;;;;10.68;3.90;;;;;;;17.23;56.62;100903.59;6319380;28;20198;-72
2021/05/10 13:34:02;;;;;;;6.95;4.35;;;;;;;17.28;57.41;100905.59;6326166;28;20236;-72
2021/05/10 13:37:07;;;;;;;7.20;4.20;;;;;;;17.20;57.47;100898.63;6340688;28;20184;-71
2021/05/10 13:40:12;;;;;;;5.38;4.43;;;;;;;17.27;56.35;100909.44;6339219;28;20210;-71
2021/05/10 13:43:22;;;;;;;4.70;4.20;;;;;;;17.29;56.62;100919.13;6340549;28;20183;-72
2021/05/10 13:46:25;;;;;;;12.10;4.57;;;;;;;17.26;57.19;100914.13;6339666;28;20386;-72
2021/05/10 13:49:30;;;;;;;7.93;4.20;;;;;;;17.34;57.14;100905.38;6339893;28;20230;-71
2021/05/10 13:52:33;;;;;;;9.82;4.57;;;;;;;17.24;56.95;100899.75;6339624;28;20298;-71
2021/05/10 13:55:36;;;;;;;7.78;4.50;;;;;;;17.24;57.39;100905.28;6339904;28;20229;-71
2021/05/10 13:58:42;;;;;;;9.95;4.50;;;;;;;17.32;57.66;100904.81;6339558;28;20214;-71
2021/05/10 14:01:45;;;;;;;7.22;4.30;;;;;;;17.86;56.46;100907.56;6339867;28;20214;-71
2021/05/10 14:04:50;;;;;;;5.97;4.05;;;;;;;17.98;54.76;100910.97;6338515;28;20469;-71
2021/05/10 14:07:53;;;;;;;10.00;4.53;;;;;;;18.21;54.08;100915.31;6339769;28;20190;-71
2021/05/10 14:10:56;;;;;;;5.18;4.38;;;;;;;17.74;54.99;100909.66;6338800;28;20313;-72
2021/05/10 14:13:59;;;;;;;4.90;4.10;;;;;;;17.74;54.11;100909.66;6338446;28;20212;-71
2021/05/10 14:17:02;;;;;;;7.28;3.97;;;;;;;17.64;54.14;100909.59;6339470;28;20212;-71
2021/05/10 14:20:11;;;;;;;9.10;6.25;;;;;;;17.67;53.77;100909.06;6339059;28;20225;-71
2021/05/10 14:23:14;;;;;;;11.90;5.05;;;;;;;17.68;54.70;100896.91;6338162;28;20326;-71